createdAt,value
2022-09-30T04:35:18.449Z,10.17
2022-09-30T04:40:21.177Z,9.93
2022-09-30T04:45:24.639Z,10.53
2022-09-30T04:50:27.363Z,10.77
2022-09-30T04:55:30.367Z,11.77
2022-09-30T05:00:33.117Z,11.40
2022-09-30T05:05:35.862Z,11.00
2022-09-30T05:10:38.792Z,11.63
2022-09-30T05:15:41.609Z,11.60
2022-09-30T05:20:44.294Z,12.93
2022-09-30T05:25:47.934Z,11.03
2022-09-30T05:31:00.183Z,12.03
2022-09-30T05:36:05.983Z,11.73
2022-09-30T05:41:14.231Z,11.10
2022-09-30T05:46:18.447Z,11.60
2022-09-30T05:51:21.417Z,12.03
2022-09-30T05:56:24.081Z,12.03
2022-09-30T06:01:26.975Z,12.37
2022-09-30T06:06:30.375Z,12.20
2022-09-30T06:11:33.267Z,12.27
2022-09-30T06:16:36.291Z,11.57
2022-09-30T06:21:39.995Z,11.47
2022-09-30T06:26:43.287Z,10.50
2022-09-30T06:31:46.137Z,11.53
2022-09-30T06:36:48.959Z,9.73
2022-09-30T06:41:51.671Z,9.87
2022-09-30T06:46:54.871Z,9.43
2022-09-30T06:51:58.984Z,9.20
2022-09-30T06:57:02.206Z,9.00
2022-09-30T07:02:05.208Z,9.60
2022-09-30T07:07:07.992Z,10.03
2022-09-30T07:12:10.687Z,10.23
2022-09-30T07:17:13.364Z,9.00
2022-09-30T07:22:28.306Z,9.07
2022-09-30T07:27:33.957Z,8.70
2022-09-30T07:32:37.235Z,9.33
2022-09-30T07:37:40.035Z,9.23
2022-09-30T07:42:45.873Z,9.60
2022-09-30T07:47:53.493Z,10.60
2022-09-30T07:52:56.631Z,8.23
2022-09-30T07:57:59.328Z,9.13
2022-09-30T08:03:02.394Z,8.93
2022-09-30T08:08:07.012Z,9.13
2022-09-30T08:13:11.006Z,7.93
2022-09-30T08:18:13.727Z,8.40
2022-09-30T08:23:16.537Z,8.00
2022-09-30T08:28:19.278Z,8.17
2022-09-30T08:33:21.951Z,7.37
2022-09-30T08:38:24.725Z,8.33
2022-09-30T08:43:36.542Z,8.20
2022-09-30T08:48:41.927Z,7.73
2022-09-30T08:53:46.900Z,7.93
2022-09-30T08:58:51.757Z,7.67
2022-09-30T09:03:54.936Z,7.83
2022-09-30T09:09:18.564Z,7.77
2022-09-30T09:14:37.566Z,7.80
2022-09-30T09:19:58.553Z,8.43
2022-09-30T09:25:03.045Z,9.77
2022-09-30T09:30:12.311Z,10.17
2022-09-30T09:35:40.911Z,8.60
2022-09-30T09:41:12.802Z,8.57
2022-09-30T09:46:15.438Z,7.63
2022-09-30T09:51:33.336Z,7.77
2022-09-30T09:56:37.847Z,7.83
2022-09-30T10:01:43.249Z,6.83
2022-09-30T10:06:52.377Z,7.97
2022-09-30T10:12:07.363Z,8.10
2022-09-30T10:17:18.971Z,11.60
2022-09-30T10:22:30.510Z,11.53
2022-09-30T10:27:36.872Z,11.83
2022-09-30T10:32:39.591Z,11.43
2022-09-30T10:37:54.197Z,11.10
2022-09-30T10:42:57.263Z,11.60
2022-09-30T10:48:01.557Z,10.13
2022-09-30T10:53:10.681Z,9.57
2022-09-30T10:58:25.332Z,9.93
2022-09-30T11:04:23.396Z,9.43
2022-09-30T11:09:53.509Z,8.97
2022-09-30T11:15:11.002Z,8.50
2022-09-30T11:20:23.550Z,8.20
2022-09-30T11:25:41.481Z,8.03
2022-09-30T11:30:52.562Z,7.67
2022-09-30T11:36:03.816Z,7.50
2022-09-30T11:41:25.133Z,7.80
2022-09-30T11:46:57.088Z,6.63
2022-09-30T11:52:16.721Z,7.43
2022-09-30T11:57:28.328Z,6.40
2022-09-30T12:02:48.927Z,6.33
2022-09-30T12:08:29.336Z,6.77
2022-09-30T12:13:44.575Z,6.10
2022-09-30T12:18:56.278Z,6.13
2022-09-30T12:24:33.803Z,6.50
2022-09-30T12:30:00.996Z,6.30
2022-09-30T12:35:28.291Z,6.70
2022-09-30T12:40:52.323Z,7.30
2022-09-30T12:46:00.727Z,7.33
2022-09-30T12:51:03.573Z,7.93
2022-09-30T12:56:07.165Z,7.60
2022-09-30T13:01:17.356Z,7.67
2022-09-30T13:06:21.592Z,7.33
2022-09-30T13:11:36.244Z,7.03
2022-09-30T13:17:21.549Z,8.60
2022-09-30T13:22:30.284Z,8.57
2022-09-30T13:27:46.232Z,8.37
2022-09-30T13:33:06.737Z,8.43
2022-09-30T13:38:17.491Z,8.03
2022-09-30T13:43:26.423Z,7.63
2022-09-30T13:48:29.504Z,7.40
2022-09-30T13:53:37.943Z,7.90
2022-09-30T13:58:43.821Z,8.00
2022-09-30T14:04:06.443Z,7.67
2022-09-30T14:09:29.603Z,8.47
2022-09-30T14:14:54.240Z,9.27
2022-09-30T14:20:30.766Z,9.30
2022-09-30T14:25:40.186Z,8.90
2022-09-30T14:31:03.741Z,9.83
2022-09-30T14:36:13.413Z,11.87
2022-09-30T14:41:22.014Z,10.73
2022-09-30T14:46:31.178Z,11.17
2022-09-30T14:51:52.464Z,10.47
2022-09-30T14:56:56.471Z,8.73
2022-09-30T15:02:18.498Z,9.57
2022-09-30T15:07:21.634Z,10.10
2022-09-30T15:12:25.950Z,9.13
2022-09-30T15:17:37.254Z,10.43
2022-09-30T15:22:40.435Z,10.93
2022-09-30T15:27:43.514Z,10.70
2022-09-30T15:32:50.318Z,9.90
2022-09-30T15:37:55.172Z,10.87
2022-09-30T15:43:02.990Z,12.03
2022-09-30T15:48:07.174Z,13.83
2022-09-30T15:53:36.676Z,13.70
2022-09-30T15:58:42.430Z,13.03
2022-09-30T16:03:57.366Z,13.83
2022-09-30T16:09:03.291Z,15.53
2022-09-30T16:14:10.440Z,16.60
2022-09-30T16:19:17.965Z,16.70
2022-09-30T16:24:30.366Z,17.77
2022-09-30T16:29:34.054Z,17.03
2022-09-30T16:34:37.541Z,18.37
2022-09-30T16:39:40.656Z,17.37
2022-09-30T16:44:45.415Z,16.80
2022-09-30T16:49:48.831Z,17.00
2022-09-30T16:54:51.819Z,18.23
2022-09-30T16:59:54.755Z,18.13
2022-09-30T17:04:57.709Z,18.73
2022-09-30T17:10:00.937Z,19.87
2022-09-30T17:15:04.639Z,19.23
2022-09-30T17:20:08.112Z,18.97
2022-09-30T17:25:11.189Z,18.37
2022-09-30T17:30:14.273Z,18.70
2022-09-30T17:35:17.775Z,17.37
2022-09-30T17:40:40.168Z,18.57
2022-09-30T17:45:48.960Z,19.37
2022-09-30T17:50:54.947Z,17.40
2022-09-30T17:56:10.420Z,18.03
2022-09-30T18:01:14.026Z,18.00
2022-09-30T18:06:18.267Z,19.97
2022-09-30T18:11:26.258Z,17.90
2022-09-30T18:16:31.126Z,17.33
2022-09-30T18:21:36.078Z,18.60
2022-09-30T18:26:39.328Z,18.17
2022-09-30T18:31:45.805Z,17.87
2022-09-30T18:36:49.493Z,17.60
2022-09-30T18:41:52.466Z,17.63
2022-09-30T18:46:55.656Z,19.23
2022-09-30T18:51:58.917Z,18.40
2022-09-30T18:57:02.220Z,18.60
2022-09-30T19:02:05.324Z,20.07
2022-09-30T19:07:08.324Z,20.67
2022-09-30T19:12:11.670Z,21.37
2022-09-30T19:17:15.622Z,21.43
2022-09-30T19:22:18.710Z,20.77
2022-09-30T19:27:23.709Z,20.43
2022-09-30T19:32:29.916Z,22.13
2022-09-30T19:37:32.990Z,21.93
2022-09-30T19:42:38.248Z,20.90
2022-09-30T19:47:41.353Z,18.70
2022-09-30T19:52:54.031Z,19.60
2022-09-30T19:57:59.541Z,19.87
2022-09-30T20:03:02.664Z,18.40
2022-09-30T20:08:05.664Z,19.97
2022-09-30T20:13:11.112Z,17.80
2022-09-30T20:18:14.286Z,20.07
2022-09-30T20:23:17.779Z,18.57
2022-09-30T20:28:22.278Z,18.57
2022-09-30T20:33:25.529Z,19.17
2022-09-30T20:38:28.430Z,18.33
2022-09-30T20:43:32.558Z,19.60
2022-09-30T20:48:37.249Z,18.50
2022-09-30T20:53:40.290Z,20.50
2022-09-30T20:58:43.209Z,17.83
2022-09-30T21:03:52.110Z,15.63
2022-09-30T21:08:55.458Z,16.50
2022-09-30T21:13:58.435Z,16.67
2022-09-30T21:19:01.281Z,16.27
2022-09-30T21:24:04.080Z,18.93
2022-09-30T21:29:06.927Z,17.93
2022-09-30T21:34:14.074Z,18.60
2022-09-30T21:39:16.946Z,18.93
2022-09-30T21:44:19.794Z,18.20
2022-09-30T21:49:26.427Z,20.23
2022-09-30T21:54:29.701Z,19.50
2022-09-30T21:59:32.445Z,19.03
2022-09-30T22:04:35.207Z,18.00
2022-09-30T22:09:39.540Z,19.27
2022-09-30T22:14:42.535Z,16.40
2022-09-30T22:19:45.275Z,17.00
2022-09-30T22:24:48.172Z,16.00
2022-09-30T22:29:50.966Z,18.77
2022-09-30T22:35:12.211Z,16.20
2022-09-30T22:40:14.985Z,16.47
2022-09-30T22:45:17.891Z,15.70
2022-09-30T22:50:20.622Z,16.53
2022-09-30T22:55:23.441Z,16.20
2022-09-30T23:00:26.197Z,15.63
2022-09-30T23:05:28.953Z,17.23
2022-09-30T23:10:31.660Z,15.80
2022-09-30T23:15:34.525Z,17.73
2022-09-30T23:20:37.297Z,18.90
2022-09-30T23:25:40.296Z,19.20
2022-09-30T23:30:43.143Z,19.47
